Time;durP1;ratioP1;P1;durP2;ratioP2;P2;SDS_P1;SDS_P2;PMS_P1;PMS_P2;Temp;Humidity;BMP_temperature;BMP_pressure;BME280_temperature;BME280_humidity;BME280_pressure;Samples;Min_cycle;Max_cycle;Signal;HPM_P1;HPM_P2
2023/05/30 00:01:51;;;;;;;11.20;2.80;;;12.30;99.90;;;;;;5053861;28;20700;-91
2023/05/30 00:04:19;;;;;;;10.35;2.83;;;12.30;99.90;;;;;;5054091;28;20262;-89
2023/05/30 00:06:47;;;;;;;11.02;2.63;;;12.30;99.90;;;;;;5054261;28;20292;-90
2023/05/30 00:09:12;;;;;;;12.35;2.65;;;12.20;99.90;;;;;;5053941;28;20256;-92
2023/05/30 00:11:39;;;;;;;11.48;2.63;;;12.20;99.90;;;;;;5053974;28;20266;-92
2023/05/30 00:14:05;;;;;;;10.98;1.90;;;12.10;99.90;;;;;;5053822;28;20182;-90
2023/05/30 00:16:31;;;;;;;13.80;2.47;;;12.10;99.90;;;;;;5054871;28;20253;-93
2023/05/30 00:18:57;;;;;;;8.93;2.53;;;12.00;99.90;;;;;;5054046;28;20177;-89
2023/05/30 00:21:23;;;;;;;11.68;2.92;;;12.00;99.90;;;;;;5054040;28;20174;-89
2023/05/30 00:23:49;;;;;;;9.13;2.40;;;12.00;99.90;;;;;;5053942;28;20184;-91
2023/05/30 00:26:15;;;;;;;14.50;2.28;;;11.90;99.90;;;;;;5053796;28;20182;-90
2023/05/30 00:28:42;;;;;;;11.20;2.58;;;11.90;99.90;;;;;;5053791;28;20670;-91
2023/05/30 00:31:08;;;;;;;10.65;2.88;;;11.80;99.90;;;;;;5053739;28;20188;-91
2023/05/30 00:33:34;;;;;;;10.05;2.67;;;11.80;99.90;;;;;;5054003;28;20268;-90
2023/05/30 00:36:00;;;;;;;8.98;2.15;;;11.70;99.90;;;;;;5054697;28;20226;-91
2023/05/30 00:38:26;;;;;;;6.45;2.10;;;11.70;99.90;;;;;;5058400;28;20264;-90
2023/05/30 00:40:52;;;;;;;12.15;2.47;;;11.70;99.90;;;;;;5058226;28;20267;-89
2023/05/30 00:43:21;;;;;;;12.40;3.00;;;11.70;99.90;;;;;;5058067;28;20177;-91
2023/05/30 00:45:53;;;;;;;11.38;2.22;;;11.70;99.90;;;;;;5057567;28;20269;-91
2023/05/30 00:48:20;;;;;;;13.00;2.63;;;11.60;99.90;;;;;;5058045;28;20267;-90
2023/05/30 00:50:45;;;;;;;10.35;3.15;;;11.50;99.90;;;;;;5058249;28;20185;-92
2023/05/30 00:53:11;;;;;;;8.77;2.60;;;11.50;99.90;;;;;;5057828;28;20182;-90
2023/05/30 00:55:37;;;;;;;12.43;2.53;;;11.40;99.90;;;;;;5057530;28;20173;-90
2023/05/30 00:58:03;;;;;;;11.57;2.38;;;11.40;99.90;;;;;;5074390;28;20280;-90
2023/05/30 01:00:30;;;;;;;12.07;2.40;;;11.50;99.90;;;;;;5057693;28;20264;-89
2023/05/30 01:02:59;;;;;;;11.82;2.30;;;11.40;99.90;;;;;;5057706;28;20186;-89
2023/05/30 01:05:27;;;;;;;10.10;2.10;;;11.40;99.90;;;;;;5057288;28;20549;-91
2023/05/30 01:07:53;;;;;;;10.20;2.42;;;11.30;99.90;;;;;;5057781;28;20170;-89
2023/05/30 01:10:21;;;;;;;8.15;2.30;;;11.30;99.90;;;;;;5057545;28;20220;-89
2023/05/30 01:13:17;;;;;;;9.55;2.72;;;11.30;99.90;;;;;;5057223;28;20508;-90
2023/05/30 01:15:55;;;;;;;11.35;2.75;;;11.30;99.90;;;;;;5057096;28;20170;-90
2023/05/30 01:18:50;;;;;;;8.98;2.50;;;11.30;99.90;;;;;;5058508;28;20245;-90
2023/05/30 01:21:19;;;;;;;8.88;2.70;;;11.30;99.90;;;;;;5057802;28;20166;-89
2023/05/30 01:24:17;;;;;;;12.57;2.67;;;11.20;99.90;;;;;;5058438;28;20182;-89
2023/05/30 01:27:08;;;;;;;10.32;2.45;;;11.10;99.90;;;;;;5051915;28;20273;-90
2023/05/30 01:29:36;;;;;;;10.02;2.20;;;10.90;99.90;;;;;;5056789;28;20311;-91
2023/05/30 01:32:05;;;;;;;9.95;2.60;;;10.90;99.90;;;;;;5057058;28;20178;-90
2023/05/30 01:34:31;;;;;;;7.00;2.38;;;10.90;99.90;;;;;;5056671;28;20755;-90
2023/05/30 01:36:58;;;;;;;11.02;2.47;;;10.80;99.90;;;;;;5056922;28;20186;-89
2023/05/30 01:39:23;;;;;;;10.75;3.00;;;10.80;99.90;;;;;;5057379;28;20181;-90
2023/05/30 01:42:14;;;;;;;8.57;2.40;;;10.80;99.90;;;;;;5535398;22;20188;-79
2023/05/30 01:45:06;;;;;;;10.13;2.25;;;10.70;99.90;;;;;;5036174;28;20625;-82
2023/05/30 01:47:39;;;;;;;9.48;3.05;;;10.70;99.90;;;;;;5034880;28;20186;-81
2023/05/30 01:50:14;;;;;;;11.90;2.78;;;10.70;99.90;;;;;;5036243;28;20213;-80
2023/05/30 01:52:43;;;;;;;8.18;2.55;;;10.70;99.90;;;;;;5036595;28;20588;-86
2023/05/30 01:55:10;;;;;;;11.05;2.85;;;10.70;99.90;;;;;;5036600;28;20179;-84
2023/05/30 01:57:47;;;;;;;7.63;2.63;;;10.70;99.90;;;;;;5035010;28;20182;-85
2023/05/30 02:00:18;;;;;;;10.30;2.40;;;10.60;99.90;;;;;;5035280;28;20170;-84
2023/05/30 02:02:44;;;;;;;11.60;2.65;;;10.60;99.90;;;;;;5051526;28;20183;-82
2023/05/30 02:05:10;;;;;;;6.40;2.20;;;10.50;99.90;;;;;;5035071;28;20269;-82
2023/05/30 02:07:36;;;;;;;11.65;2.70;;;10.40;99.90;;;;;;5051673;28;20182;-84
2023/05/30 02:10:02;;;;;;;12.52;2.83;;;10.40;99.90;;;;;;5034955;28;20675;-84
2023/05/30 02:12:28;;;;;;;10.52;2.17;;;10.30;99.90;;;;;;5041090;28;20177;-84
2023/05/30 02:14:54;;;;;;;11.73;2.83;;;10.30;99.90;;;;;;5056112;28;20491;-82
2023/05/30 02:17:21;;;;;;;8.55;2.38;;;10.30;99.90;;;;;;5056009;28;20217;-82
2023/05/30 02:19:49;;;;;;;11.63;2.80;;;10.30;99.90;;;;;;5055939;28;20174;-83
2023/05/30 02:22:16;;;;;;;9.77;2.45;;;10.30;99.90;;;;;;5056086;28;20181;-81
2023/05/30 02:24:42;;;;;;;9.02;2.50;;;10.20;99.90;;;;;;5054526;28;20182;-82
2023/05/30 02:27:09;;;;;;;12.85;2.67;;;10.20;99.90;;;;;;5055664;28;20607;-83
2023/05/30 02:29:35;;;;;;;9.25;2.17;;;10.20;99.90;;;;;;5054142;28;20216;-83
2023/05/30 02:32:00;;;;;;;14.68;3.00;;;10.20;99.90;;;;;;5055340;28;20178;-85
2023/05/30 02:34:26;;;;;;;9.43;2.35;;;10.20;99.90;;;;;;5055657;28;20189;-84
2023/05/30 02:36:52;;;;;;;13.50;2.47;;;10.20;99.90;;;;;;5055562;28;20166;-83
2023/05/30 02:39:18;;;;;;;8.45;2.47;;;10.20;99.90;;;;;;5055375;28;20220;-82
2023/05/30 02:41:43;;;;;;;12.43;2.70;;;10.10;99.90;;;;;;5055348;28;20162;-83
2023/05/30 02:44:09;;;;;;;13.05;2.50;;;10.10;99.90;;;;;;5054734;28;20248;-83
2023/05/30 02:46:35;;;;;;;10.07;2.92;;;10.10;99.90;;;;;;5055201;28;20201;-83
2023/05/30 02:49:01;;;;;;;13.60;3.03;;;10.00;99.90;;;;;;5055195;28;20205;-83
2023/05/30 02:51:27;;;;;;;13.25;2.92;;;10.00;99.90;;;;;;5055124;28;20166;-83
2023/05/30 02:53:53;;;;;;;12.43;2.85;;;9.90;99.90;;;;;;5053637;28;20205;-82
2023/05/30 02:56:22;;;;;;;18.10;3.63;;;9.90;99.90;;;;;;5055403;28;20228;-83
2023/05/30 02:58:49;;;;;;;13.50;3.10;;;9.90;99.90;;;;;;5053835;28;20170;-83
2023/05/30 03:01:15;;;;;;;10.10;3.00;;;9.90;99.90;;;;;;5055040;28;20181;-82
2023/05/30 03:03:41;;;;;;;16.27;3.10;;;9.90;99.90;;;;;;5070286;28;20186;-83
2023/05/30 03:06:07;;;;;;;10.55;2.90;;;10.00;99.90;;;;;;5055042;28;20165;-83
2023/05/30 03:08:33;;;;;;;11.57;2.70;;;9.80;99.90;;;;;;5054937;28;20189;-83
2023/05/30 03:10:59;;;;;;;14.43;3.30;;;9.80;99.90;;;;;;5070269;28;20231;-84
2023/05/30 03:13:24;;;;;;;9.90;2.97;;;9.80;99.90;;;;;;5054315;28;20178;-82
2023/05/30 03:15:50;;;;;;;12.27;3.08;;;9.90;99.90;;;;;;5054743;28;20518;-83
2023/05/30 03:18:16;;;;;;;11.15;2.90;;;9.90;99.90;;;;;;5054914;28;20168;-86
2023/05/30 03:20:42;;;;;;;13.55;3.05;;;9.90;99.90;;;;;;5054548;28;20174;-83
2023/05/30 03:23:08;;;;;;;10.82;2.70;;;9.90;99.90;;;;;;5053448;28;20182;-83
2023/05/30 03:25:34;;;;;;;14.57;3.25;;;9.90;99.90;;;;;;5054781;28;20631;-83
2023/05/30 03:28:05;;;;;;;13.30;3.95;;;10.00;99.90;;;;;;5054345;28;20158;-80
2023/05/30 03:30:32;;;;;;;11.45;2.78;;;10.00;99.90;;;;;;5054468;28;20217;-80
2023/05/30 03:32:59;;;;;;;12.25;3.53;;;10.00;99.90;;;;;;5054485;28;20166;-79
2023/05/30 03:35:24;;;;;;;12.30;2.67;;;9.90;99.90;;;;;;5054476;28;20554;-80
2023/05/30 03:37:50;;;;;;;14.93;3.70;;;9.90;99.90;;;;;;5054563;28;20166;-80
2023/05/30 03:40:16;;;;;;;13.18;3.35;;;9.90;99.90;;;;;;5054638;28;20583;-82
2023/05/30 03:42:42;;;;;;;17.55;3.55;;;9.80;99.90;;;;;;5053020;28;20229;-82
2023/05/30 03:45:08;;;;;;;12.52;3.17;;;9.80;99.90;;;;;;5054396;28;20209;-82
2023/05/30 03:47:33;;;;;;;12.25;2.95;;;9.90;99.90;;;;;;5053337;28;20177;-81
2023/05/30 03:50:00;;;;;;;13.75;3.20;;;9.90;99.90;;;;;;5069723;28;20214;-81
2023/05/30 03:52:26;;;;;;;14.00;3.08;;;9.90;99.90;;;;;;5052929;28;20992;-82
2023/05/30 03:54:51;;;;;;;11.20;3.03;;;9.90;99.90;;;;;;5053106;28;20273;-83
2023/05/30 03:57:17;;;;;;;18.42;3.78;;;10.00;99.90;;;;;;5053912;28;20181;-82
2023/05/30 03:59:42;;;;;;;14.55;3.40;;;10.00;99.90;;;;;;5054086;28;20182;-81
2023/05/30 04:02:08;;;;;;;11.85;3.40;;;10.00;99.90;;;;;;5054258;28;20222;-83
2023/05/30 04:04:34;;;;;;;10.68;3.47;;;10.00;99.90;;;;;;5054160;28;20631;-81
2023/05/30 04:07:00;;;;;;;13.93;3.53;;;9.90;99.90;;;;;;5054193;28;20686;-81
2023/05/30 04:09:26;;;;;;;14.68;3.15;;;9.90;99.90;;;;;;5053810;28;20205;-85
2023/05/30 04:11:53;;;;;;;20.35;3.65;;;9.90;99.90;;;;;;5053833;28;20236;-83
2023/05/30 04:14:19;;;;;;;13.35;3.70;;;9.90;99.90;;;;;;5052448;28;20276;-80
2023/05/30 04:16:44;;;;;;;17.90;3.80;;;10.00;99.90;;;;;;5052928;28;20265;-82
2023/05/30 04:19:10;;;;;;;15.52;3.45;;;10.00;99.90;;;;;;5054071;28;20177;-82
2023/05/30 04:21:36;;;;;;;22.23;4.10;;;10.00;99.90;;;;;;5054021;28;20608;-84
2023/05/30 04:24:03;;;;;;;19.73;4.00;;;10.00;99.90;;;;;;5053847;28;20600;-82
2023/05/30 04:26:31;;;;;;;16.55;3.88;;;10.10;99.90;;;;;;5053934;28;20173;-82
2023/05/30 04:28:57;;;;;;;17.20;4.18;;;10.20;99.90;;;;;;5052184;28;20259;-83
2023/05/30 04:31:24;;;;;;;18.45;4.30;;;10.20;99.90;;;;;;5053823;28;20174;-83
2023/05/30 04:33:51;;;;;;;16.73;3.97;;;10.30;99.90;;;;;;5053692;28;20174;-82
2023/05/30 04:36:19;;;;;;;10.57;3.63;;;10.40;99.90;;;;;;5052433;28;20311;-83
2023/05/30 04:38:46;;;;;;;14.93;3.83;;;10.50;99.90;;;;;;5052436;28;20212;-80
2023/05/30 04:41:19;;;;;;;16.83;3.72;;;10.50;99.90;;;;;;5051079;28;20182;-82
2023/05/30 04:43:48;;;;;;;9.30;3.22;;;10.50;99.90;;;;;;5053072;28;20248;-83
2023/05/30 04:46:21;;;;;;;16.88;4.35;;;10.70;99.90;;;;;;5053395;28;20636;-83
2023/05/30 04:48:48;;;;;;;13.00;3.95;;;10.70;99.90;;;;;;5052236;28;20555;-84
2023/05/30 04:51:14;;;;;;;19.25;4.75;;;10.80;99.90;;;;;;5052186;28;20742;-84
2023/05/30 04:53:40;;;;;;;20.92;4.80;;;10.90;99.90;;;;;;5053133;28;20602;-84
2023/05/30 04:56:06;;;;;;;17.35;4.35;;;10.90;99.90;;;;;;5053677;28;20174;-85
2023/05/30 04:58:32;;;;;;;11.25;3.63;;;11.00;99.90;;;;;;5053516;28;20498;-82
2023/05/30 05:00:58;;;;;;;17.95;3.72;;;11.00;99.90;;;;;;5053555;28;20621;-81
2023/05/30 05:03:24;;;;;;;18.95;4.82;;;11.10;99.90;;;;;;5052009;28;20178;-81
2023/05/30 05:05:50;;;;;;;16.92;4.00;;;11.20;99.90;;;;;;5053458;28;20178;-86
2023/05/30 05:08:16;;;;;;;20.65;4.97;;;11.20;99.90;;;;;;5053110;28;20513;-87
2023/05/30 05:10:42;;;;;;;15.85;4.00;;;11.20;99.90;;;;;;5053511;28;20174;-88
2023/05/30 05:13:08;;;;;;;20.63;4.10;;;11.20;99.90;;;;;;5053633;28;20169;-87
2023/05/30 05:15:36;;;;;;;13.38;3.95;;;11.30;99.90;;;;;;5053364;28;20180;-89
2023/05/30 05:18:02;;;;;;;18.02;4.20;;;11.30;99.90;;;;;;5068530;28;20213;-88
2023/05/30 05:20:27;;;;;;;21.35;5.10;;;11.30;99.90;;;;;;5052581;28;20620;-89
2023/05/30 05:22:55;;;;;;;16.50;4.75;;;11.30;99.90;;;;;;5054915;28;20257;-88
2023/05/30 05:25:22;;;;;;;12.82;3.45;;;11.30;99.90;;;;;;5072539;28;20228;-88
2023/05/30 05:27:48;;;;;;;16.67;4.53;;;11.30;99.90;;;;;;5057044;28;20178;-88
2023/05/30 05:30:14;;;;;;;18.20;4.30;;;11.40;99.90;;;;;;5072843;28;20252;-88
2023/05/30 05:32:39;;;;;;;15.48;4.00;;;11.40;99.90;;;;;;5057494;28;20166;-87
2023/05/30 05:35:09;;;;;;;16.23;4.63;;;11.40;99.90;;;;;;5057013;28;20170;-84
2023/05/30 05:37:35;;;;;;;16.92;4.50;;;11.50;99.90;;;;;;5055337;28;20178;-83
2023/05/30 05:40:05;;;;;;;12.88;4.13;;;11.50;99.90;;;;;;5055857;28;20192;-84
2023/05/30 05:42:33;;;;;;;15.85;5.30;;;11.50;99.90;;;;;;5052228;28;20241;-83
2023/05/30 05:44:59;;;;;;;17.33;4.07;;;11.60;99.90;;;;;;5037263;28;20174;-88
2023/05/30 05:47:25;;;;;;;18.75;4.15;;;11.50;99.90;;;;;;5037119;28;20182;-86
2023/05/30 05:49:54;;;;;;;20.15;4.05;;;11.60;99.90;;;;;;5037084;28;20206;-88
2023/05/30 05:52:20;;;;;;;19.55;4.57;;;11.50;99.90;;;;;;5035799;28;20179;-86
2023/05/30 05:54:46;;;;;;;17.30;4.00;;;11.60;99.90;;;;;;5052512;28;20182;-88
2023/05/30 05:57:14;;;;;;;12.43;3.58;;;11.60;99.90;;;;;;5036966;28;20308;-84
2023/05/30 05:59:40;;;;;;;17.20;4.28;;;11.50;99.90;;;;;;5035435;28;20265;-88
2023/05/30 06:02:06;;;;;;;14.70;4.05;;;11.70;99.90;;;;;;5036955;28;20250;-87
2023/05/30 06:04:32;;;;;;;18.52;4.07;;;11.70;99.90;;;;;;5036490;28;20178;-87
2023/05/30 06:07:00;;;;;;;13.90;4.40;;;11.70;99.90;;;;;;5036872;28;20179;-89
2023/05/30 06:09:30;;;;;;;18.40;4.38;;;11.70;99.90;;;;;;5035433;28;20198;-88
2023/05/30 06:12:00;;;;;;;15.80;3.88;;;11.90;99.90;;;;;;5049284;28;20635;-87
2023/05/30 06:14:26;;;;;;;18.08;4.63;;;11.80;99.90;;;;;;5056058;28;20193;-87
2023/05/30 06:16:54;;;;;;;14.98;4.15;;;11.90;99.90;;;;;;5056421;28;20166;-86
2023/05/30 06:19:20;;;;;;;14.23;4.32;;;12.00;99.90;;;;;;5056356;28;20162;-87
2023/05/30 06:21:46;;;;;;;16.50;4.20;;;12.00;99.90;;;;;;5056507;28;20601;-87
2023/05/30 06:24:11;;;;;;;17.75;4.20;;;12.10;99.90;;;;;;5056437;28;20231;-86
2023/05/30 06:26:38;;;;;;;13.30;4.15;;;12.10;99.90;;;;;;5056113;28;20174;-85
2023/05/30 06:29:04;;;;;;;20.40;4.95;;;12.20;99.90;;;;;;5055866;28;20212;-84
2023/05/30 06:31:30;;;;;;;20.13;4.80;;;12.40;99.90;;;;;;5055853;28;20248;-87
2023/05/30 06:33:55;;;;;;;13.02;4.13;;;12.50;99.90;;;;;;5055650;28;20212;-87
2023/05/30 06:36:23;;;;;;;15.00;3.83;;;12.60;99.90;;;;;;5071266;28;20209;-86
2023/05/30 06:38:51;;;;;;;20.27;4.53;;;12.60;99.90;;;;;;5056210;28;20154;-85
2023/05/30 06:41:17;;;;;;;13.15;4.22;;;12.80;99.90;;;;;;5071164;28;20189;-85
2023/05/30 06:43:42;;;;;;;14.27;4.50;;;12.90;99.90;;;;;;5055005;28;20274;-84
2023/05/30 06:46:08;;;;;;;13.52;4.00;;;12.90;99.90;;;;;;5055402;28;20174;-81
2023/05/30 06:48:34;;;;;;;13.20;4.15;;;12.90;99.90;;;;;;5055503;28;20540;-82
2023/05/30 06:50:59;;;;;;;17.55;4.13;;;13.10;99.90;;;;;;5055526;28;20185;-82
2023/05/30 06:53:25;;;;;;;14.90;4.03;;;13.20;99.90;;;;;;5055079;28;20549;-82
2023/05/30 06:55:52;;;;;;;15.20;3.50;;;13.40;99.90;;;;;;5070739;28;20521;-83
2023/05/30 06:58:18;;;;;;;15.43;4.28;;;13.60;99.90;;;;;;5055037;28;20211;-81
2023/05/30 07:00:44;;;;;;;15.73;3.70;;;13.80;99.90;;;;;;5055072;28;20181;-81
2023/05/30 07:03:10;;;;;;;21.52;4.50;;;13.90;99.90;;;;;;5053740;28;20185;-84
2023/05/30 07:05:36;;;;;;;16.42;4.28;;;13.90;99.90;;;;;;5070643;28;20177;-83
2023/05/30 07:08:02;;;;;;;14.88;3.83;;;14.00;99.90;;;;;;5055305;28;20264;-82
2023/05/30 07:10:27;;;;;;;13.48;3.78;;;14.10;99.90;;;;;;5054950;28;20201;-83
2023/05/30 07:12:53;;;;;;;19.08;4.55;;;14.30;99.90;;;;;;5053154;28;20264;-82
2023/05/30 07:15:19;;;;;;;18.15;4.07;;;14.40;99.90;;;;;;5054629;28;20173;-83
2023/05/30 07:17:44;;;;;;;18.38;3.50;;;14.50;99.90;;;;;;5054845;28;20301;-83
2023/05/30 07:20:10;;;;;;;14.27;3.67;;;14.70;99.90;;;;;;5054876;28;20170;-83
2023/05/30 07:22:38;;;;;;;16.35;4.00;;;14.80;99.90;;;;;;5053502;28;20182;-87
2023/05/30 07:25:05;;;;;;;12.80;3.72;;;14.90;99.90;;;;;;5053753;28;20220;-83
2023/05/30 07:27:32;;;;;;;17.95;4.30;;;15.00;99.90;;;;;;5054648;28;20166;-84
2023/05/30 07:29:57;;;;;;;12.80;3.60;;;15.20;99.90;;;;;;5052799;28;20283;-83
2023/05/30 07:32:24;;;;;;;13.93;3.65;;;15.40;99.90;;;;;;5070095;28;20209;-83
2023/05/30 07:34:50;;;;;;;15.23;4.35;;;15.40;99.90;;;;;;5054543;28;20170;-83
2023/05/30 07:37:17;;;;;;;18.27;4.50;;;15.50;99.90;;;;;;5054568;28;20197;-83
2023/05/30 07:39:43;;;;;;;12.10;4.03;;;15.50;99.90;;;;;;5069744;28;20182;-82
2023/05/30 07:42:09;;;;;;;15.07;3.85;;;15.60;99.90;;;;;;5053908;28;20290;-83
2023/05/30 07:44:35;;;;;;;16.02;3.80;;;15.80;99.90;;;;;;5068767;28;20583;-82
2023/05/30 07:47:01;;;;;;;15.13;3.97;;;15.80;99.90;;;;;;5069810;28;20178;-83
2023/05/30 07:49:26;;;;;;;16.00;4.20;;;16.00;99.90;;;;;;5069804;28;20202;-84
2023/05/30 07:51:52;;;;;;;12.73;3.63;;;16.10;99.90;;;;;;5053075;28;20170;-84
2023/05/30 07:54:17;;;;;;;14.30;3.78;;;16.10;99.90;;;;;;5053930;28;20174;-85
2023/05/30 07:56:43;;;;;;;16.52;3.63;;;16.00;99.90;;;;;;5052709;28;20177;-84
2023/05/30 07:59:09;;;;;;;14.90;3.90;;;16.00;99.90;;;;;;5053664;28;20158;-84
2023/05/30 08:01:35;;;;;;;15.18;3.80;;;16.20;99.90;;;;;;5069542;28;20186;-84
2023/05/30 08:04:00;;;;;;;12.93;3.33;;;16.30;99.90;;;;;;5069225;28;20297;-83
2023/05/30 08:06:26;;;;;;;14.68;3.58;;;16.40;99.90;;;;;;5053958;28;20178;-86
2023/05/30 08:08:52;;;;;;;17.55;3.85;;;16.50;99.90;;;;;;5054202;28;20292;-84
2023/05/30 08:11:19;;;;;;;15.77;3.45;;;16.40;99.90;;;;;;5053524;28;20644;-83
2023/05/30 08:13:45;;;;;;;15.05;3.25;;;16.50;99.90;;;;;;5052061;28;20173;-84
2023/05/30 08:16:12;;;;;;;11.75;3.40;;;16.70;99.90;;;;;;5069326;28;20185;-84
2023/05/30 08:18:38;;;;;;;12.73;3.40;;;16.80;99.90;;;;;;5053911;28;20166;-84
2023/05/30 08:21:03;;;;;;;14.60;4.30;;;17.00;99.90;;;;;;5053730;28;20181;-84
2023/05/30 08:23:29;;;;;;;14.68;3.70;;;16.80;99.90;;;;;;5052368;28;20174;-83
2023/05/30 08:25:58;;;;;;;13.95;3.78;;;16.70;99.90;;;;;;5053524;28;20193;-83
2023/05/30 08:28:24;;;;;;;11.20;3.25;;;16.70;99.90;;;;;;5053472;28;20670;-83
2023/05/30 08:30:51;;;;;;;13.93;3.80;;;16.90;99.90;;;;;;5053978;28;20174;-85
2023/05/30 08:33:18;;;;;;;22.33;4.32;;;17.00;99.90;;;;;;5069273;28;20177;-87
2023/05/30 08:35:45;;;;;;;12.43;3.17;;;17.20;99.90;;;;;;5053718;28;20182;-84
2023/05/30 08:38:11;;;;;;;10.60;3.33;;;17.20;99.10;;;;;;5053636;28;20245;-84
2023/05/30 08:40:42;;;;;;;15.40;2.80;;;17.30;99.90;;;;;;5053395;28;20185;-85
2023/05/30 08:43:08;;;;;;;12.57;3.00;;;17.30;98.90;;;;;;5052962;28;20221;-84
2023/05/30 08:45:33;;;;;;;11.52;3.50;;;17.30;99.60;;;;;;5052224;28;20600;-85
2023/05/30 08:48:02;;;;;;;18.27;4.13;;;17.50;99.90;;;;;;5053658;28;20181;-86
2023/05/30 08:50:30;;;;;;;16.02;3.78;;;17.30;99.90;;;;;;5053437;28;20260;-85
2023/05/30 08:53:09;;;;;;;12.82;3.10;;;17.50;99.90;;;;;;5053158;28;20166;-84
2023/05/30 08:55:41;;;;;;;14.07;3.78;;;17.70;99.40;;;;;;5053480;28;20236;-85
2023/05/30 08:58:20;;;;;;;15.85;4.00;;;17.50;99.70;;;;;;5056034;28;20173;-86
2023/05/30 09:00:48;;;;;;;12.52;3.25;;;17.20;98.50;;;;;;5056079;28;20208;-84
2023/05/30 09:03:15;;;;;;;12.82;3.45;;;17.30;99.80;;;;;;5055905;28;20181;-84
2023/05/30 09:05:42;;;;;;;13.52;3.13;;;17.40;98.80;;;;;;5055843;28;20182;-86
2023/05/30 09:08:12;;;;;;;13.90;3.28;;;17.40;99.20;;;;;;5057183;28;20631;-85
2023/05/30 09:10:47;;;;;;;13.80;3.00;;;17.70;99.90;;;;;;5057046;28;20233;-85
2023/05/30 09:13:16;;;;;;;12.10;2.72;;;18.00;99.60;;;;;;5056930;28;20162;-87
2023/05/30 09:15:43;;;;;;;11.93;3.45;;;17.90;96.20;;;;;;5057181;28;20182;-86
2023/05/30 09:18:08;;;;;;;12.13;3.45;;;17.80;97.10;;;;;;5055569;28;20226;-84
2023/05/30 09:20:37;;;;;;;17.23;3.20;;;17.90;98.30;;;;;;5056867;28;20158;-84
2023/05/30 09:23:03;;;;;;;14.88;3.25;;;17.90;97.70;;;;;;5056773;28;20627;-84
2023/05/30 09:25:48;;;;;;;14.05;3.45;;;18.00;97.00;;;;;;5055597;28;20205;-84
2023/05/30 09:28:14;;;;;;;10.40;2.88;;;18.10;96.60;;;;;;5056709;28;20196;-84
2023/05/30 09:30:56;;;;;;;14.63;3.28;;;18.30;98.00;;;;;;5056708;28;20288;-86
2023/05/30 09:33:23;;;;;;;12.68;2.97;;;18.40;98.10;;;;;;5055503;28;20205;-85
2023/05/30 09:35:53;;;;;;;11.15;3.30;;;18.30;97.10;;;;;;5056802;28;20202;-84
2023/05/30 09:38:23;;;;;;;8.95;2.88;;;18.40;97.80;;;;;;5055454;28;20556;-84
2023/05/30 09:41:04;;;;;;;12.07;3.00;;;18.50;97.60;;;;;;5055801;28;20312;-86
2023/05/30 09:43:35;;;;;;;9.43;3.15;;;18.60;96.20;;;;;;5054927;28;20295;-83
2023/05/30 09:46:07;;;;;;;10.98;3.13;;;18.60;95.40;;;;;;5055669;28;20178;-85
2023/05/30 09:48:33;;;;;;;9.95;2.97;;;18.50;95.80;;;;;;5055036;28;20562;-85
2023/05/30 09:51:01;;;;;;;12.55;3.22;;;18.50;95.40;;;;;;5056373;28;20216;-83
2023/05/30 09:53:33;;;;;;;11.13;3.10;;;18.50;96.70;;;;;;5056035;28;20182;-84
2023/05/30 09:56:01;;;;;;;14.45;3.33;;;18.70;95.20;;;;;;5056112;28;20189;-84
2023/05/30 09:58:26;;;;;;;10.52;3.10;;;18.80;95.10;;;;;;5056371;28;20213;-84
2023/05/30 10:00:57;;;;;;;11.10;3.03;;;18.80;94.90;;;;;;5056190;28;20197;-84
2023/05/30 10:03:44;;;;;;;11.98;3.20;;;18.90;93.30;;;;;;5055935;28;20227;-84
2023/05/30 10:06:15;;;;;;;10.13;3.03;;;19.10;94.90;;;;;;5054674;28;20182;-86
2023/05/30 10:08:45;;;;;;;11.75;2.92;;;19.10;94.20;;;;;;5055609;28;20166;-84
2023/05/30 10:11:12;;;;;;;9.40;2.50;;;19.10;94.60;;;;;;5054703;28;20571;-85
2023/05/30 10:13:39;;;;;;;10.77;2.92;;;19.20;94.50;;;;;;5054743;28;20174;-86
2023/05/30 10:16:13;;;;;;;11.93;3.15;;;19.20;93.50;;;;;;5054844;28;20178;-85
2023/05/30 10:18:51;;;;;;;9.68;3.03;;;19.10;93.50;;;;;;5054642;28;20174;-85
2023/05/30 10:21:20;;;;;;;9.23;2.63;;;19.20;93.90;;;;;;5055829;28;20176;-84
2023/05/30 10:23:47;;;;;;;9.00;3.15;;;19.20;93.70;;;;;;5056264;28;20205;-87
2023/05/30 10:26:15;;;;;;;7.65;2.65;;;19.20;92.70;;;;;;5054588;28;20178;-87
2023/05/30 10:28:42;;;;;;;9.20;2.63;;;19.30;94.00;;;;;;5054321;28;20178;-85
2023/05/30 10:31:12;;;;;;;11.43;2.70;;;19.40;94.20;;;;;;5054247;28;20189;-84
2023/05/30 10:33:41;;;;;;;9.63;2.53;;;19.40;93.30;;;;;;5055559;28;20178;-86
2023/05/30 10:36:07;;;;;;;10.48;2.72;;;19.30;93.00;;;;;;5054300;28;20201;-84
2023/05/30 10:38:45;;;;;;;9.90;3.22;;;19.30;93.30;;;;;;5054246;28;20170;-83
2023/05/30 10:41:24;;;;;;;9.60;2.35;;;19.40;92.70;;;;;;5054989;28;20185;-87
2023/05/30 10:44:11;;;;;;;9.57;3.05;;;19.60;92.60;;;;;;5053698;28;20229;-84
2023/05/30 10:46:43;;;;;;;12.20;2.92;;;19.30;92.10;;;;;;5055274;28;20164;-84
2023/05/30 10:49:21;;;;;;;9.57;2.83;;;19.50;92.90;;;;;;5055162;28;20196;-82
2023/05/30 10:52:07;;;;;;;13.98;2.95;;;19.50;92.10;;;;;;5054950;28;20166;-84
2023/05/30 10:54:35;;;;;;;5.25;2.22;;;19.70;91.60;;;;;;5054956;28;20174;-83
2023/05/30 10:57:23;;;;;;;8.05;2.70;;;19.80;90.50;;;;;;5053845;28;20819;-84
2023/05/30 10:59:50;;;;;;;7.03;2.53;;;19.90;91.60;;;;;;5053769;28;20170;-84
2023/05/30 11:02:20;;;;;;;10.80;2.92;;;20.00;91.40;;;;;;5054760;28;20251;-84
2023/05/30 11:04:50;;;;;;;10.82;3.20;;;20.10;90.80;;;;;;5053582;28;20635;-85
2023/05/30 11:07:17;;;;;;;10.48;2.90;;;20.20;93.50;;;;;;5053746;28;20193;-85
2023/05/30 11:10:02;;;;;;;7.90;2.85;;;20.20;93.20;;;;;;5070128;28;20728;-83
2023/05/30 11:12:28;;;;;;;9.65;2.40;;;20.40;91.90;;;;;;5054409;28;20177;-84
2023/05/30 11:14:56;;;;;;;12.63;3.08;;;20.40;91.70;;;;;;5054556;28;20553;-83
2023/05/30 11:17:34;;;;;;;8.45;2.85;;;20.60;92.50;;;;;;5053423;28;20663;-83
2023/05/30 11:20:14;;;;;;;7.68;2.72;;;20.30;91.20;;;;;;5054012;28;20569;-84
2023/05/30 11:22:41;;;;;;;10.95;2.90;;;20.20;92.90;;;;;;5053276;28;20181;-83
2023/05/30 11:25:33;;;;;;;8.75;2.72;;;20.30;91.70;;;;;;5051732;28;20280;-84
2023/05/30 11:28:06;;;;;;;8.70;2.40;;;20.40;92.00;;;;;;5061428;28;20200;-87
2023/05/30 11:30:37;;;;;;;13.13;2.88;;;20.60;91.10;;;;;;5054400;28;20213;-83
2023/05/30 11:33:10;;;;;;;10.27;2.70;;;20.60;90.40;;;;;;5054316;28;20181;-84
2023/05/30 11:35:37;;;;;;;8.10;2.35;;;20.70;92.00;;;;;;5053155;28;21067;-84
2023/05/30 11:38:02;;;;;;;9.23;3.08;;;20.90;91.50;;;;;;5053107;28;20232;-84
2023/05/30 11:40:28;;;;;;;7.03;2.35;;;21.10;92.50;;;;;;5052896;28;20235;-84
2023/05/30 11:42:55;;;;;;;9.70;2.85;;;21.30;92.00;;;;;;5053622;28;20230;-84
2023/05/30 11:45:26;;;;;;;7.85;2.20;;;21.40;89.10;;;;;;5052912;28;20182;-83
2023/05/30 11:47:52;;;;;;;7.22;2.33;;;21.40;90.50;;;;;;5052985;28;20181;-84
2023/05/30 11:50:21;;;;;;;7.40;2.30;;;21.30;90.00;;;;;;5052625;28;20212;-85
2023/05/30 11:52:47;;;;;;;10.35;2.90;;;21.30;89.30;;;;;;5053793;28;20174;-82
2023/05/30 11:55:12;;;;;;;8.43;2.10;;;21.40;90.90;;;;;;5054113;28;20181;-85
2023/05/30 11:57:38;;;;;;;8.35;2.20;;;21.40;87.70;;;;;;5053752;28;20173;-84
2023/05/30 12:00:11;;;;;;;9.27;2.25;;;21.20;87.40;;;;;;5053885;28;20197;-83
2023/05/30 12:02:38;;;;;;;6.55;2.22;;;21.60;91.20;;;;;;5053637;28;20165;-83
2023/05/30 12:05:04;;;;;;;7.80;2.47;;;21.70;88.50;;;;;;5053870;28;20629;-83
2023/05/30 12:07:32;;;;;;;10.13;2.70;;;21.70;89.80;;;;;;5053910;28;20178;-83
2023/05/30 12:09:58;;;;;;;8.02;2.90;;;21.30;90.90;;;;;;5053720;28;20540;-83
2023/05/30 12:12:23;;;;;;;8.13;2.47;;;20.80;90.10;;;;;;5053353;28;20181;-84
2023/05/30 12:14:53;;;;;;;6.35;2.20;;;20.60;90.50;;;;;;5052616;28;20177;-84
2023/05/30 12:17:21;;;;;;;7.03;2.22;;;20.70;91.40;;;;;;5053542;28;20220;-84
2023/05/30 12:19:50;;;;;;;7.97;2.45;;;20.80;91.00;;;;;;5053630;28;20220;-82
2023/05/30 12:22:16;;;;;;;8.95;2.50;;;20.70;90.40;;;;;;5052426;28;20173;-83
2023/05/30 12:24:42;;;;;;;5.75;2.35;;;20.60;91.20;;;;;;5053666;28;20178;-83
2023/05/30 12:27:19;;;;;;;7.35;2.47;;;20.50;91.90;;;;;;5068959;28;20261;-82
2023/05/30 12:29:46;;;;;;;8.35;2.35;;;20.50;91.20;;;;;;5051894;28;20213;-83
2023/05/30 12:32:11;;;;;;;9.43;2.38;;;20.40;91.80;;;;;;5056824;28;20505;-83
2023/05/30 12:34:47;;;;;;;9.80;2.83;;;20.30;91.50;;;;;;5060450;28;20173;-84
2023/05/30 12:37:15;;;;;;;6.90;2.70;;;20.20;91.40;;;;;;5060380;28;20161;-83
2023/05/30 12:39:46;;;;;;;10.40;2.72;;;20.30;92.50;;;;;;5060101;28;20600;-82
2023/05/30 12:42:12;;;;;;;7.50;2.25;;;20.50;92.40;;;;;;5058830;28;20253;-82
2023/05/30 12:44:56;;;;;;;8.43;2.38;;;20.50;91.50;;;;;;5075390;28;20205;-82
2023/05/30 12:47:23;;;;;;;7.22;2.13;;;20.50;93.00;;;;;;5060252;28;20168;-84